Time;durP1;ratioP1;P1;durP2;ratioP2;P2;SDS_P1;SDS_P2;PMS_P1;PMS_P2;Temp;Humidity;BMP_temperature;BMP_pressure;BME280_temperature;BME280_humidity;BME280_pressure;Samples;Min_cycle;Max_cycle;Signal;HPM_P1;HPM_P2
2022/06/07 00:00:31;;;;;;;12.02;6.90;;;12.00;99.90;;;;;;5014728;28;20049;-87
2022/06/07 00:02:57;;;;;;;13.98;7.32;;;12.00;99.90;;;;;;5015253;28;20053;-87
2022/06/07 00:05:25;;;;;;;14.52;6.65;;;12.00;99.90;;;;;;4998112;28;20413;-87
2022/06/07 00:07:53;;;;;;;15.68;6.45;;;12.00;99.90;;;;;;4998343;28;20480;-87
2022/06/07 00:10:19;;;;;;;12.20;6.47;;;12.00;99.90;;;;;;5014241;28;20043;-87
2022/06/07 00:12:45;;;;;;;15.27;6.35;;;12.00;99.90;;;;;;5015188;28;20046;-87
2022/06/07 00:15:11;;;;;;;13.18;6.43;;;12.00;99.90;;;;;;5013645;28;20104;-87
2022/06/07 00:17:37;;;;;;;13.40;6.80;;;12.00;99.90;;;;;;5014663;28;20045;-86
2022/06/07 00:20:05;;;;;;;12.63;6.43;;;12.00;99.90;;;;;;5013626;28;20073;-87
2022/06/07 00:22:31;;;;;;;12.80;6.50;;;12.00;99.90;;;;;;4997646;28;20087;-87
2022/06/07 00:24:57;;;;;;;14.55;6.63;;;12.00;99.90;;;;;;4998026;28;20056;-86
2022/06/07 00:27:24;;;;;;;13.60;7.45;;;12.00;99.90;;;;;;4996768;28;20057;-87
2022/06/07 00:29:50;;;;;;;16.77;7.28;;;12.00;99.90;;;;;;5014660;28;20566;-87
2022/06/07 00:32:21;;;;;;;18.08;7.03;;;12.00;99.90;;;;;;5014403;28;20076;-87
2022/06/07 00:34:47;;;;;;;13.18;7.45;;;12.00;99.90;;;;;;4996902;28;20108;-87
2022/06/07 00:37:13;;;;;;;16.38;7.03;;;12.00;99.90;;;;;;5014133;28;20496;-87
2022/06/07 00:39:39;;;;;;;11.88;7.10;;;12.00;99.90;;;;;;5014738;28;20412;-87
2022/06/07 00:42:05;;;;;;;14.80;8.35;;;12.00;99.90;;;;;;5014155;28;20033;-87
2022/06/07 00:44:39;;;;;;;14.10;7.90;;;12.00;99.90;;;;;;4996851;28;20480;-88
2022/06/07 00:47:10;;;;;;;10.95;7.63;;;12.00;99.90;;;;;;4997628;28;20052;-87
2022/06/07 00:49:51;;;;;;;16.65;8.30;;;12.00;99.90;;;;;;4996590;28;20488;-87
2022/06/07 00:52:18;;;;;;;12.07;8.05;;;12.00;99.90;;;;;;5014711;28;20452;-87
2022/06/07 00:54:44;;;;;;;16.52;7.35;;;11.90;99.90;;;;;;4998129;28;20120;-88
2022/06/07 00:57:19;;;;;;;18.67;8.38;;;12.00;99.90;;;;;;5016181;28;20135;-87
2022/06/07 00:59:44;;;;;;;17.58;7.75;;;12.00;99.90;;;;;;5016885;28;20048;-86
2022/06/07 01:02:10;;;;;;;14.15;7.60;;;12.00;99.90;;;;;;5017594;28;20033;-88
2022/06/07 01:04:36;;;;;;;14.25;7.78;;;12.00;99.90;;;;;;5015278;28;20077;-88
2022/06/07 01:12:39;;;;;;;17.58;8.10;;;12.00;99.90;;;;;;5034042;28;20084;-87
2022/06/07 01:15:06;;;;;;;14.48;7.50;;;12.00;99.90;;;;;;5016877;28;20049;-88
2022/06/07 01:17:32;;;;;;;15.20;8.43;;;12.00;99.90;;;;;;5016384;28;20527;-87
2022/06/07 01:19:57;;;;;;;16.17;8.23;;;12.00;99.90;;;;;;5016499;28;20045;-88
2022/06/07 01:22:23;;;;;;;15.05;7.30;;;12.00;99.90;;;;;;5017943;28;20052;-88
2022/06/07 01:24:49;;;;;;;16.13;8.25;;;12.10;99.90;;;;;;5016593;28;20549;-88
2022/06/07 01:27:16;;;;;;;13.48;7.75;;;12.00;99.90;;;;;;5033254;28;20033;-87
2022/06/07 01:29:42;;;;;;;16.58;8.02;;;12.10;99.90;;;;;;5016668;28;20140;-88
2022/06/07 01:32:13;;;;;;;18.45;8.05;;;12.10;99.90;;;;;;5016496;28;20218;-86
2022/06/07 01:34:41;;;;;;;15.23;7.97;;;12.10;99.90;;;;;;5032722;28;20094;-88
2022/06/07 01:37:15;;;;;;;20.65;8.55;;;12.10;99.90;;;;;;5016705;28;20108;-87
2022/06/07 01:42:28;;;;;;;15.27;8.90;;;12.10;99.90;;;;;;5033152;28;20057;-88
2022/06/07 01:44:54;;;;;;;19.52;8.98;;;12.10;99.90;;;;;;5015715;28;20082;-87
2022/06/07 01:47:23;;;;;;;18.58;8.95;;;12.10;99.90;;;;;;5016450;28;20511;-87
2022/06/07 01:49:49;;;;;;;18.08;7.97;;;12.10;99.90;;;;;;5015629;28;20048;-87
2022/06/07 01:52:24;;;;;;;16.40;8.27;;;12.10;99.90;;;;;;5015544;28;20048;-88
2022/06/07 01:54:51;;;;;;;18.27;8.38;;;12.10;99.90;;;;;;5016642;28;20045;-87
2022/06/07 01:57:18;;;;;;;19.20;8.30;;;12.10;99.90;;;;;;5015925;28;20036;-87
2022/06/07 01:59:44;;;;;;;14.90;8.45;;;12.20;99.90;;;;;;5015706;28;20467;-87
2022/06/07 02:02:19;;;;;;;17.80;9.18;;;12.10;99.90;;;;;;5016384;28;20135;-88
2022/06/07 02:04:45;;;;;;;19.10;8.77;;;12.10;99.90;;;;;;5015684;28;20090;-88
2022/06/07 02:07:20;;;;;;;15.55;8.60;;;12.20;99.90;;;;;;5015490;28;20123;-88
2022/06/07 02:09:52;;;;;;;13.95;8.18;;;12.20;99.90;;;;;;5016969;28;20110;-87
2022/06/07 02:12:18;;;;;;;14.20;8.07;;;12.20;99.90;;;;;;5015977;28;20040;-88
2022/06/07 02:14:44;;;;;;;16.90;8.05;;;12.20;99.90;;;;;;5016124;28;20059;-88
2022/06/07 02:17:09;;;;;;;17.33;7.95;;;12.20;99.90;;;;;;5015729;28;20052;-88
2022/06/07 02:19:35;;;;;;;15.88;8.32;;;12.20;99.90;;;;;;5032220;28;20048;-87
2022/06/07 02:22:02;;;;;;;17.83;7.85;;;12.20;99.90;;;;;;5015942;28;20041;-88
2022/06/07 02:24:27;;;;;;;19.80;8.27;;;12.20;99.90;;;;;;5015891;28;20067;-88
2022/06/07 02:27:00;;;;;;;19.38;8.38;;;12.20;99.90;;;;;;5016272;28;20476;-88
2022/06/07 02:29:31;;;;;;;16.83;8.32;;;12.30;99.90;;;;;;5008675;28;20513;-87
2022/06/07 02:32:05;;;;;;;17.38;9.30;;;12.30;99.90;;;;;;4976747;28;20485;-87
2022/06/07 02:34:32;;;;;;;15.63;8.85;;;12.30;99.90;;;;;;4975763;28;20042;-88
2022/06/07 02:37:01;;;;;;;17.80;8.52;;;12.30;99.90;;;;;;4977073;28;20437;-88
2022/06/07 02:39:30;;;;;;;18.13;8.27;;;12.30;99.90;;;;;;4976843;28;20089;-88
2022/06/07 02:41:58;;;;;;;18.88;8.57;;;12.30;99.90;;;;;;4975988;28;20056;-88
2022/06/07 02:44:23;;;;;;;19.63;8.32;;;12.30;99.90;;;;;;4976422;28;20128;-88
2022/06/07 02:46:59;;;;;;;18.85;9.45;;;12.30;99.90;;;;;;4976855;28;20476;-88
2022/06/07 02:49:28;;;;;;;18.63;9.07;;;12.30;99.90;;;;;;4975266;28;20622;-88
2022/06/07 02:52:00;;;;;;;18.27;8.85;;;12.30;99.90;;;;;;4976467;28;20038;-88
2022/06/07 02:54:26;;;;;;;16.95;8.18;;;12.30;99.90;;;;;;4976679;28;20046;-88
2022/06/07 02:56:52;;;;;;;16.13;8.75;;;12.30;99.90;;;;;;4976013;28;20096;-88
2022/06/07 02:59:20;;;;;;;14.93;8.82;;;12.30;99.90;;;;;;4976702;28;20077;-88
2022/06/07 03:01:46;;;;;;;16.40;8.43;;;12.30;99.90;;;;;;4976500;28;20041;-88
2022/06/07 03:04:11;;;;;;;13.32;8.35;;;12.30;99.90;;;;;;4975794;28;20046;-89
2022/06/07 03:06:37;;;;;;;18.75;8.77;;;12.30;99.90;;;;;;4977171;28;20046;-88
2022/06/07 03:09:04;;;;;;;15.38;7.45;;;12.30;99.90;;;;;;4975611;28;20413;-88
2022/06/07 03:11:29;;;;;;;16.25;8.70;;;12.40;99.90;;;;;;4976211;28;20085;-88
2022/06/07 03:13:55;;;;;;;12.70;7.50;;;12.40;99.90;;;;;;4976396;28;20080;-89
2022/06/07 03:16:21;;;;;;;16.60;8.25;;;12.40;99.90;;;;;;4976217;28;20100;-89
2022/06/07 03:18:47;;;;;;;15.95;8.52;;;12.40;99.90;;;;;;4993042;28;20088;-88
2022/06/07 03:21:12;;;;;;;12.32;8.32;;;12.40;99.90;;;;;;4995528;28;20049;-88
2022/06/07 03:23:38;;;;;;;16.17;8.02;;;12.40;99.90;;;;;;4995863;28;20396;-88
2022/06/07 03:26:07;;;;;;;17.67;9.13;;;12.40;99.90;;;;;;4995298;28;20496;-89
2022/06/07 03:28:33;;;;;;;15.13;8.95;;;12.40;99.90;;;;;;4996501;28;20175;-89
2022/06/07 03:31:12;;;;;;;13.35;8.15;;;12.40;99.90;;;;;;4996175;28;20052;-89
2022/06/07 03:33:45;;;;;;;16.30;9.13;;;12.40;99.90;;;;;;4996464;28;20093;-89
2022/06/07 03:36:20;;;;;;;18.05;8.85;;;12.40;99.90;;;;;;4995235;28;20044;-89
2022/06/07 03:38:46;;;;;;;16.77;7.88;;;12.40;99.90;;;;;;4995534;28;20042;-90
2022/06/07 03:41:19;;;;;;;15.35;8.07;;;12.40;99.90;;;;;;4996005;28;20151;-89
2022/06/07 03:43:45;;;;;;;13.85;9.02;;;12.40;99.90;;;;;;4995886;28;20085;-89
2022/06/07 03:46:13;;;;;;;12.27;8.90;;;12.40;99.90;;;;;;4995489;28;20500;-89
2022/06/07 03:48:41;;;;;;;16.60;8.57;;;12.40;99.90;;;;;;4996115;28;20045;-90
2022/06/07 03:51:07;;;;;;;15.13;8.57;;;12.40;99.90;;;;;;4995412;28;20041;-89
2022/06/07 03:53:36;;;;;;;15.20;8.55;;;12.40;99.90;;;;;;4995310;28;20087;-88
2022/06/07 03:56:11;;;;;;;16.50;8.95;;;12.40;99.90;;;;;;4995997;28;20056;-88
2022/06/07 03:58:40;;;;;;;14.38;8.75;;;12.40;99.90;;;;;;4995402;28;20042;-89
2022/06/07 04:01:10;;;;;;;16.77;7.95;;;12.40;99.90;;;;;;4995603;28;20045;-89
2022/06/07 04:03:36;;;;;;;14.95;7.82;;;12.40;99.90;;;;;;4995946;28;20049;-89
2022/06/07 04:06:03;;;;;;;16.73;7.78;;;12.40;99.90;;;;;;4994662;28;20038;-89
2022/06/07 04:08:31;;;;;;;16.25;7.88;;;12.30;99.90;;;;;;4995699;28;20497;-89
2022/06/07 04:11:00;;;;;;;18.75;8.93;;;12.30;99.90;;;;;;4996113;28;20037;-89
2022/06/07 04:13:28;;;;;;;16.73;8.48;;;12.30;99.90;;;;;;4994988;28;20046;-89
2022/06/07 04:15:57;;;;;;;16.13;7.90;;;12.30;99.90;;;;;;4995641;28;20037;-89
2022/06/07 04:18:24;;;;;;;12.52;7.65;;;12.30;99.90;;;;;;4995550;28;20100;-89
2022/06/07 04:21:02;;;;;;;14.10;6.82;;;12.30;99.90;;;;;;4996396;28;20049;-89
2022/06/07 04:23:33;;;;;;;15.85;7.07;;;12.20;99.90;;;;;;4999807;28;20041;-91
2022/06/07 04:26:11;;;;;;;14.98;7.57;;;12.20;99.90;;;;;;4998716;28;20132;-88
2022/06/07 04:28:56;;;;;;;16.38;7.38;;;12.20;99.90;;;;;;5000637;28;20074;-91
2022/06/07 04:31:34;;;;;;;12.15;5.45;;;12.20;99.90;;;;;;5031909;28;20062;-92
2022/06/07 04:34:00;;;;;;;15.38;5.32;;;12.10;99.90;;;;;;5015352;28;20054;-91
2022/06/07 04:36:27;;;;;;;12.77;5.78;;;12.10;99.90;;;;;;5014815;28;20179;-91
2022/06/07 04:38:54;;;;;;;16.27;5.65;;;12.00;99.90;;;;;;5015731;28;20042;-91
2022/06/07 04:41:21;;;;;;;14.70;6.05;;;12.00;99.90;;;;;;5014535;28;20037;-90
2022/06/07 04:43:48;;;;;;;14.88;5.53;;;11.90;99.90;;;;;;5015861;28;20936;-89
2022/06/07 04:46:15;;;;;;;16.63;6.32;;;11.90;99.90;;;;;;5015046;28;20049;-90
2022/06/07 04:48:43;;;;;;;12.80;5.78;;;11.80;99.90;;;;;;4997056;28;20038;-90
2022/06/07 04:51:11;;;;;;;13.75;6.50;;;11.80;99.90;;;;;;4978234;28;20061;-88
2022/06/07 04:53:43;;;;;;;9.57;5.50;;;11.80;99.90;;;;;;4995824;28;20100;-89
2022/06/07 04:56:15;;;;;;;14.18;5.30;;;11.60;99.90;;;;;;4978433;28;20096;-90
2022/06/07 04:58:41;;;;;;;14.75;5.35;;;11.80;99.90;;;;;;4979451;28;20038;-89
2022/06/07 05:01:18;;;;;;;16.63;5.50;;;11.80;99.90;;;;;;4979009;28;20076;-89
2022/06/07 05:03:44;;;;;;;14.88;4.90;;;11.80;99.90;;;;;;4978840;28;20109;-90
2022/06/07 05:06:17;;;;;;;15.38;5.68;;;11.90;99.90;;;;;;4978659;28;20045;-89
2022/06/07 05:08:43;;;;;;;;;;;11.90;99.90;;;;;;4978902;28;20046;-88
2022/06/07 05:11:08;;;;;;;12.60;5.13;;;11.90;99.90;;;;;;4978748;28;19929;-89
2022/06/07 05:13:34;;;;;;;10.20;4.90;;;12.00;99.90;;;;;;4979309;28;20050;-89
2022/06/07 05:16:00;;;;;;;12.23;5.70;;;12.10;99.90;;;;;;4976473;28;20073;-90
2022/06/07 05:18:26;;;;;;;12.93;5.43;;;12.10;99.90;;;;;;4989035;28;20250;-89
2022/06/07 05:20:57;;;;;;;11.25;5.07;;;12.20;99.90;;;;;;4978223;28;20042;-91
2022/06/07 05:23:23;;;;;;;12.05;5.85;;;12.20;99.90;;;;;;4978027;28;20052;-90
2022/06/07 05:25:55;;;;;;;20.27;7.32;;;12.00;99.90;;;;;;4978444;28;20049;-89
2022/06/07 05:28:21;;;;;;;14.48;6.30;;;12.30;99.90;;;;;;4978718;28;20053;-90
2022/06/07 05:30:50;;;;;;;11.02;6.00;;;12.30;99.90;;;;;;4987125;28;20062;-88
2022/06/07 05:33:25;;;;;;;10.95;5.55;;;12.80;99.90;;;;;;4994835;28;20089;-89
2022/06/07 05:35:51;;;;;;;14.95;6.72;;;12.30;99.90;;;;;;4994812;28;20120;-88
2022/06/07 05:38:23;;;;;;;14.80;6.40;;;12.30;99.90;;;;;;4993750;28;20217;-88
2022/06/07 05:40:57;;;;;;;14.15;6.97;;;12.30;99.90;;;;;;4994527;28;20076;-88
2022/06/07 05:43:26;;;;;;;8.98;5.80;;;12.30;99.90;;;;;;4994176;28;20050;-89
2022/06/07 05:45:55;;;;;;;11.88;5.90;;;12.40;99.90;;;;;;4993969;28;20041;-89
2022/06/07 05:48:23;;;;;;;18.08;6.15;;;12.40;99.90;;;;;;4994497;28;20050;-88
2022/06/07 05:50:51;;;;;;;13.82;6.35;;;12.40;99.90;;;;;;4993990;28;20053;-89
2022/06/07 05:53:18;;;;;;;16.83;6.07;;;12.40;99.90;;;;;;4993690;28;20053;-90
2022/06/07 05:55:44;;;;;;;12.35;5.13;;;12.40;99.90;;;;;;4994662;28;20034;-89
2022/06/07 05:58:10;;;;;;;15.15;6.10;;;12.40;99.90;;;;;;4993885;28;20064;-90
2022/06/07 06:00:37;;;;;;;15.55;6.57;;;12.40;99.90;;;;;;4993892;28;20504;-89
2022/06/07 06:03:03;;;;;;;9.65;5.15;;;12.40;99.90;;;;;;4994735;28;20079;-89
2022/06/07 06:05:29;;;;;;;13.07;5.13;;;12.40;99.90;;;;;;4992851;28;20107;-88
2022/06/07 06:10:48;;;;;;;9.52;4.18;;;12.30;99.90;;;;;;5009702;28;20058;-88
2022/06/07 06:13:14;;;;;;;8.23;3.90;;;12.20;99.90;;;;;;4993036;28;20042;-89
2022/06/07 06:15:40;;;;;;;18.33;4.97;;;12.20;99.90;;;;;;4993786;28;20084;-88
2022/06/07 06:18:06;;;;;;;12.30;4.28;;;12.10;99.90;;;;;;4992815;28;20034;-87
2022/06/07 06:20:32;;;;;;;14.90;4.50;;;12.10;99.90;;;;;;4991909;28;20081;-88
2022/06/07 06:22:58;;;;;;;10.43;4.07;;;12.10;99.90;;;;;;4993092;28;20042;-87
2022/06/07 06:25:24;;;;;;;14.23;4.63;;;12.00;99.90;;;;;;4995223;28;20055;-86
2022/06/07 06:27:49;;;;;;;7.55;3.83;;;11.90;99.90;;;;;;5010990;28;20080;-86
2022/06/07 06:30:16;;;;;;;9.75;4.05;;;11.90;99.90;;;;;;5007291;28;20405;-86
2022/06/07 06:32:43;;;;;;;7.68;3.60;;;11.90;99.90;;;;;;4999871;28;20138;-87
2022/06/07 06:35:09;;;;;;;6.95;3.17;;;11.80;99.90;;;;;;5001173;28;20107;-87
2022/06/07 06:37:34;;;;;;;11.35;3.75;;;11.80;99.90;;;;;;5003092;28;20054;-86
2022/06/07 06:40:00;;;;;;;9.20;3.60;;;11.80;99.90;;;;;;5018982;28;20131;-86
2022/06/07 06:42:26;;;;;;;10.10;3.67;;;11.80;99.90;;;;;;5017203;28;20476;-86
2022/06/07 06:44:51;;;;;;;13.07;3.67;;;11.80;99.90;;;;;;5002456;28;20041;-86
2022/06/07 06:47:17;;;;;;;12.15;3.95;;;11.80;99.90;;;;;;5016011;28;20045;-86
2022/06/07 06:49:43;;;;;;;8.73;3.85;;;11.80;99.90;;;;;;5002240;28;20041;-86
2022/06/07 06:52:10;;;;;;;7.95;3.35;;;11.80;99.90;;;;;;5002483;28;20151;-86
2022/06/07 06:54:37;;;;;;;8.73;3.30;;;11.90;99.90;;;;;;5043843;28;20455;-86
2022/06/07 06:57:04;;;;;;;7.80;3.30;;;11.90;99.90;;;;;;5005492;28;20144;-86
2022/06/07 06:59:32;;;;;;;8.98;3.40;;;12.00;99.90;;;;;;5002579;28;20548;-86
2022/06/07 07:01:58;;;;;;;7.50;3.45;;;12.10;99.90;;;;;;4994660;28;20427;-86
2022/06/07 07:04:24;;;;;;;9.38;3.17;;;12.10;99.90;;;;;;4993466;28;20049;-85
2022/06/07 07:06:50;;;;;;;12.88;2.90;;;12.30;99.90;;;;;;4995066;28;20505;-86
2022/06/07 07:09:18;;;;;;;10.30;3.75;;;12.40;99.90;;;;;;4993747;28;20088;-86
2022/06/07 07:11:47;;;;;;;11.18;3.17;;;12.40;99.90;;;;;;4995107;28;20467;-85
2022/06/07 07:14:13;;;;;;;10.85;2.00;;;12.40;99.90;;;;;;4995192;28;20087;-85
2022/06/07 07:16:42;;;;;;;10.15;2.53;;;12.50;99.90;;;;;;4994345;28;20037;-86
2022/06/07 07:19:08;;;;;;;7.35;1.75;;;12.50;99.90;;;;;;4994486;28;20388;-84
2022/06/07 07:21:37;;;;;;;10.65;1.95;;;12.50;99.90;;;;;;4995172;28;20056;-85
2022/06/07 07:24:05;;;;;;;11.52;2.10;;;12.60;99.90;;;;;;4994520;28;20056;-85
2022/06/07 07:26:31;;;;;;;14.30;2.15;;;12.70;99.90;;;;;;4996159;28;20053;-87
2022/06/07 07:29:00;;;;;;;9.70;1.70;;;12.80;99.90;;;;;;4996258;28;20076;-87
2022/06/07 07:31:31;;;;;;;11.13;1.98;;;12.80;99.90;;;;;;4994789;28;20037;-85
2022/06/07 07:33:58;;;;;;;8.68;2.15;;;12.90;99.90;;;;;;4995553;28;20412;-84
2022/06/07 07:36:24;;;;;;;11.30;2.13;;;13.10;99.90;;;;;;5033280;28;20439;-86
2022/06/07 07:38:49;;;;;;;10.40;1.77;;;13.20;99.90;;;;;;4995308;28;20496;-87
2022/06/07 07:41:18;;;;;;;5.85;1.50;;;13.40;99.90;;;;;;5011204;28;20045;-87
2022/06/07 07:43:45;;;;;;;8.95;1.65;;;13.40;99.90;;;;;;5010363;28;20049;-87
2022/06/07 07:46:12;;;;;;;8.68;1.70;;;13.50;99.90;;;;;;4992204;28;20491;-87
2022/06/07 07:48:39;;;;;;;10.80;2.40;;;13.60;99.90;;;;;;4994164;28;20048;-87
2022/06/07 07:51:09;;;;;;;9.15;2.20;;;13.60;99.90;;;;;;5010615;28;20049;-87
2022/06/07 07:53:35;;;;;;;8.55;1.75;;;13.70;99.90;;;;;;5002411;28;20041;-86
2022/06/07 07:56:01;;;;;;;14.55;2.10;;;13.70;99.90;;;;;;5004172;28;20768;-87
2022/06/07 07:58:27;;;;;;;12.25;1.90;;;13.60;99.90;;;;;;5005941;28;20076;-88
2022/06/07 08:00:56;;;;;;;9.60;1.70;;;13.50;99.90;;;;;;5001324;28;20473;-88
2022/06/07 08:03:28;;;;;;;12.40;1.70;;;13.40;99.90;;;;;;5001095;28;20543;-88
2022/06/07 08:05:54;;;;;;;;;;;13.30;99.90;;;;;;5001895;28;20049;-88
2022/06/07 08:08:20;;;;;;;12.48;1.65;;;13.20;99.90;;;;;;5020166;28;19925;-89
2022/06/07 08:10:46;;;;;;;14.52;2.28;;;13.10;99.90;;;;;;5006267;28;20076;-86
2022/06/07 08:13:11;;;;;;;12.23;1.85;;;13.10;99.90;;;;;;5005674;28;20554;-87
2022/06/07 08:15:40;;;;;;;10.57;1.70;;;13.10;99.90;;;;;;5015968;28;20102;-91
2022/06/07 08:18:09;;;;;;;12.40;1.73;;;13.10;99.90;;;;;;5008003;28;20061;-89
2022/06/07 08:20:38;;;;;;;14.43;2.53;;;13.10;99.90;;;;;;5015804;28;20072;-89
2022/06/07 08:23:15;;;;;;;12.18;1.60;;;13.10;99.90;;;;;;5015229;28;20049;-89
2022/06/07 08:25:47;;;;;;;15.32;2.42;;;13.20;99.90;;;;;;5014982;28;20119;-89
2022/06/07 08:28:22;;;;;;;12.27;1.88;;;13.40;99.90;;;;;;5015290;28;20045;-89
2022/06/07 08:30:48;;;;;;;7.38;1.52;;;13.60;99.90;;;;;;5015193;28;20515;-89
2022/06/07 08:39:07;;;;;;;15.57;2.25;;;13.90;99.90;;;;;;5032042;28;20115;-88
2022/06/07 08:41:45;;;;;;;9.57;1.90;;;14.00;99.90;;;;;;5015227;28;20045;-88
2022/06/07 08:44:21;;;;;;;14.07;1.80;;;14.10;99.90;;;;;;5015337;28;20115;-89
2022/06/07 08:46:47;;;;;;;11.57;2.05;;;14.10;99.90;;;;;;5014941;28;20041;-89
2022/06/07 08:49:13;;;;;;;11.90;1.77;;;13.90;99.90;;;;;;4998250;28;20056;-89
2022/06/07 08:52:03;;;;;;;10.07;1.60;;;14.30;99.90;;;;;;4998803;28;20124;-88
2022/06/07 08:54:41;;;;;;;13.65;1.88;;;14.50;99.90;;;;;;4998509;28;20064;-89
2022/06/07 08:57:20;;;;;;;10.23;1.60;;;14.70;99.90;;;;;;4998694;28;20049;-88
2022/06/07 08:59:48;;;;;;;14.45;1.90;;;15.00;99.90;;;;;;4998445;28;20046;-90
2022/06/07 09:02:23;;;;;;;8.75;1.63;;;15.10;99.90;;;;;;4998026;28;20056;-89
2022/06/07 09:04:49;;;;;;;11.27;1.80;;;15.20;99.90;;;;;;4997811;28;20079;-89
2022/06/07 09:07:18;;;;;;;9.00;1.98;;;15.30;99.90;;;;;;4998226;28;20100;-89
2022/06/07 09:12:54;;;;;;;11.50;2.08;;;15.40;99.90;;;;;;5014911;28;20054;-89
2022/06/07 09:15:20;;;;;;;14.20;1.88;;;15.50;99.90;;;;;;4998338;28;20045;-90
2022/06/07 09:18:22;;;;;;;10.45;1.50;;;15.60;99.90;;;;;;4998450;28;20049;-95
2022/06/07 09:20:51;;;;;;;16.45;2.42;;;15.40;99.90;;;;;;4973043;28;20050;-92
2022/06/07 09:23:27;;;;;;;15.07;1.55;;;15.40;99.90;;;;;;4998271;28;20135;-90
2022/06/07 09:25:55;;;;;;;8.88;1.55;;;15.40;99.90;;;;;;4997889;28;20053;-90
2022/06/07 09:28:27;;;;;;;11.52;1.98;;;15.40;99.90;;;;;;4998734;28;20041;-91
2022/06/07 09:31:04;;;;;;;11.48;2.10;;;15.20;99.90;;;;;;5008147;28;20465;-89
2022/06/07 09:33:52;;;;;;;9.60;1.65;;;15.10;99.90;;;;;;5014493;28;20049;-91
2022/06/07 09:36:26;;;;;;;9.80;2.05;;;14.90;99.90;;;;;;5012084;28;20041;-91
2022/06/07 09:38:57;;;;;;;13.63;1.65;;;14.70;99.90;;;;;;4994448;28;20046;-91
2022/06/07 09:41:40;;;;;;;11.93;2.08;;;14.60;99.90;;;;;;4995364;28;20054;-90
2022/06/07 09:44:30;;;;;;;11.30;1.85;;;14.50;99.90;;;;;;4993980;28;20123;-90
2022/06/07 09:47:00;;;;;;;13.98;1.33;;;14.30;99.90;;;;;;4994784;28;20046;-92
2022/06/07 09:49:32;;;;;;;7.63;1.60;;;14.20;99.90;;;;;;4993938;28;20053;-90
2022/06/07 09:52:14;;;;;;;12.93;2.00;;;14.10;99.90;;;;;;4994161;28;20053;-91
2022/06/07 09:54:46;;;;;;;13.23;2.95;;;14.00;99.90;;;;;;4994698;28;20113;-91
2022/06/07 09:57:37;;;;;;;10.25;1.50;;;13.90;99.90;;;;;;4995617;28;20038;-90
2022/06/07 10:00:19;;;;;;;10.93;1.05;;;14.00;99.90;;;;;;4993730;28;20134;-90
2022/06/07 10:03:06;;;;;;;11.75;2.22;;;14.20;99.90;;;;;;4994200;28;20085;-91
2022/06/07 10:05:39;;;;;;;9.38;1.58;;;14.30;99.90;;;;;;4993680;28;20054;-92
2022/06/07 10:08:26;;;;;;;15.82;1.55;;;14.40;99.90;;;;;;4994169;28;20404;-90
2022/06/07 10:11:01;;;;;;;9.80;1.50;;;14.40;99.90;;;;;;4994008;28;20076;-91
2022/06/07 10:13:51;;;;;;;11.23;1.70;;;14.60;99.90;;;;;;4993824;28;20050;-91
2022/06/07 10:16:42;;;;;;;13.27;1.67;;;14.80;99.90;;;;;;4994697;28;20049;-91
2022/06/07 10:19:09;;;;;;;13.48;1.30;;;14.80;99.90;;;;;;4992559;28;20187;-91
2022/06/07 10:21:35;;;;;;;8.07;1.10;;;14.80;99.90;;;;;;4994385;28;20050;-91
2022/06/07 10:24:36;;;;;;;14.18;1.77;;;14.70;99.90;;;;;;4994363;28;20072;-91
2022/06/07 10:31:10;;;;;;;14.50;1.63;;;14.70;99.90;;;;;;5001195;28;20049;-92
2022/06/07 10:34:09;;;;;;;13.32;1.95;;;14.90;99.90;;;;;;4999193;23;20435;-94
2022/06/07 10:36:45;;;;;;;18.45;1.67;;;15.10;99.90;;;;;;5035172;28;20479;-94
2022/06/07 10:42:29;;;;;;;7.88;1.40;;;14.90;99.90;;;;;;5129815;22;20387;-91
2022/06/07 10:45:20;;;;;;;9.77;1.42;;;14.90;99.90;;;;;;5056702;28;20144;-91
2022/06/07 10:48:16;;;;;;;12.77;0.90;;;14.80;99.90;;;;;;5058642;28;20090;-91
2022/06/07 10:50:59;;;;;;;7.10;0.90;;;14.80;99.90;;;;;;5059002;28;20076;-92
2022/06/07 10:56:51;;;;;;;8.02;1.10;;;14.70;99.90;;;;;;5008073;28;20052;-92
2022/06/07 10:59:52;;;;;;;9.77;1.10;;;14.70;99.90;;;;;;5056660;28;20058;-92
2022/06/07 11:02:59;;;;;;;8.60;1.38;;;14.70;99.90;;;;;;4990846;28;20054;-92
2022/06/07 11:09:22;;;;;;;8.82;1.20;;;14.50;99.90;;;;;;5052252;28;20056;-92
2022/06/07 11:12:18;;;;;;;5.88;0.95;;;14.70;99.90;;;;;;5052315;28;20094;-92
2022/06/07 11:19:20;;;;;;;8.85;1.63;;;14.90;99.90;;;;;;5060874;28;20059;-93
2022/06/07 11:22:09;;;;;;;9.90;1.63;;;15.20;99.90;;;;;;5053982;28;20052;-95
2022/06/07 11:28:43;;;;;;;12.57;1.75;;;15.80;99.90;;;;;;5030430;28;20049;-91
2022/06/07 11:31:42;;;;;;;7.72;1.48;;;16.00;99.90;;;;;;5058933;28;20056;-93
2022/06/07 11:34:54;;;;;;;10.07;1.42;;;16.10;99.90;;;;;;5075238;28;20044;-92
2022/06/07 11:38:33;;;;;;;10.05;2.03;;;16.30;99.90;;;;;;5058248;28;20052;-92
2022/06/07 11:41:41;;;;;;;14.73;1.67;;;16.40;99.90;;;;;;5041440;28;20575;-93
2022/06/07 11:44:00;;;;;;;6.07;1.15;;;16.40;99.90;;;;;;5044328;28;20080;-92
2022/06/07 11:46:52;;;;;;;7.70;1.58;;;16.50;99.90;;;;;;5042612;28;20045;-92
2022/06/07 11:49:32;;;;;;;7.10;1.08;;;16.70;99.90;;;;;;5042008;28;20087;-91
2022/06/07 11:52:38;;;;;;;11.85;1.33;;;17.00;99.90;;;;;;5042602;28;20400;-93
2022/06/07 11:55:39;;;;;;;10.73;1.35;;;17.30;99.90;;;;;;5031354;28;20057;-91
2022/06/07 11:58:35;;;;;;;8.20;1.00;;;17.30;99.90;;;;;;5042945;28;20049;-92
2022/06/07 12:01:38;;;;;;;7.93;1.25;;;17.40;99.90;;;;;;5055465;28;20109;-91
2022/06/07 12:04:41;;;;;;;6.35;1.20;;;17.40;99.90;;;;;;5058565;28;20059;-92
2022/06/07 12:07:34;;;;;;;6.53;1.17;;;17.10;99.90;;;;;;5043937;28;20044;-91
2022/06/07 12:10:24;;;;;;;;;;;17.40;99.90;;;;;;5061441;28;20510;-92
2022/06/07 12:13:52;;;;;;;7.95;1.00;;;17.20;99.90;;;;;;5043984;28;19928;-91
2022/06/07 12:17:00;;;;;;;6.88;1.17;;;17.20;99.90;;;;;;5046484;28;20052;-91
2022/06/07 12:20:03;;;;;;;;;;;;;;;;;;;;;
2022/06/07 12:22:41;;;;;;;8.45;1.10;;;17.10;99.90;;;;;;5058501;28;20052;-92
2022/06/07 12:25:24;;;;;;;8.70;1.25;;;17.10;99.90;;;;;;5058110;28;20094;-91
2022/06/07 12:28:08;;;;;;;7.13;1.27;;;17.10;99.90;;;;;;5058891;28;20044;-91
2022/06/07 12:34:40;;;;;;;5.35;1.15;;;17.20;99.90;;;;;;5057879;28;20139;-91
2022/06/07 12:37:50;;;;;;;9.85;1.65;;;17.10;99.90;;;;;;5043159;28;20101;-91
2022/06/07 12:41:02;;;;;;;10.18;1.08;;;17.30;99.90;;;;;;5061281;28;20051;-91
2022/06/07 12:43:52;;;;;;;16.02;2.03;;;17.30;99.90;;;;;;5019311;28;20054;-92
2022/06/07 12:46:50;;;;;;;13.20;1.35;;;17.10;99.90;;;;;;5057730;28;20054;-91
2022/06/07 12:50:03;;;;;;;8.23;1.80;;;16.80;99.90;;;;;;5001462;28;20444;-91
2022/06/07 12:52:58;;;;;;;9.35;1.52;;;16.60;99.90;;;;;;5058951;28;20057;-91
2022/06/07 12:55:59;;;;;;;10.75;2.17;;;16.60;99.90;;;;;;5058490;28;20043;-90
2022/06/07 12:58:50;;;;;;;8.60;1.67;;;17.00;99.90;;;;;;5054116;28;20105;-91
2022/06/07 13:01:55;;;;;;;10.77;1.58;;;16.70;99.90;;;;;;5057241;28;20051;-91
2022/06/07 13:05:07;;;;;;;10.52;1.52;;;16.40;99.90;;;;;;5056227;28;20143;-90
2022/06/07 13:07:52;;;;;;;8.93;1.27;;;16.40;99.90;;;;;;4975525;28;20044;-91
2022/06/07 13:11:20;;;;;;;6.28;1.30;;;16.40;99.90;;;;;;5078924;28;20084;-90
2022/06/07 13:14:30;;;;;;;6.35;1.15;;;16.40;99.90;;;;;;5088800;22;20364;-90
2022/06/07 13:17:33;;;;;;;10.15;1.40;;;16.20;99.90;;;;;;5054657;28;20056;-91
2022/06/07 13:20:17;;;;;;;9.20;1.50;;;16.60;99.90;;;;;;5008523;28;20518;-92
2022/06/07 13:22:56;;;;;;;;;;;;;;;;;;;;;
2022/06/07 13:25:36;;;;;;;8.50;1.15;;;17.40;99.90;;;;;;5053297;28;20529;-91
2022/06/07 13:28:29;;;;;;;8.32;0.93;;;17.60;99.90;;;;;;5017597;28;20041;-91
2022/06/07 13:31:53;;;;;;;7.25;1.05;;;17.80;99.90;;;;;;5020130;28;20481;-90
2022/06/07 13:34:57;;;;;;;7.00;0.80;;;17.80;99.90;;;;;;4962474;28;20553;-91
2022/06/07 13:37:42;;;;;;;8.25;1.13;;;17.90;99.90;;;;;;5016965;28;20052;-91
2022/06/07 13:40:30;;;;;;;9.38;1.85;;;17.90;99.90;;;;;;5017832;28;20119;-91
2022/06/07 13:43:44;;;;;;;;;;;;;;;;;;;;;
2022/06/07 13:47:17;;;;;;;;;;;;;;;;;;;;;
2022/06/07 13:53:25;;;;;;;5.82;0.90;;;17.10;99.90;;;;;;5053410;28;20056;-91
2022/06/07 13:56:19;;;;;;;8.75;1.30;;;17.00;99.90;;;;;;5038630;28;20177;-90
2022/06/07 13:59:16;;;;;;;8.48;1.48;;;16.90;99.90;;;;;;5037422;28;20037;-91
2022/06/07 14:02:08;;;;;;;5.65;1.33;;;17.00;99.90;;;;;;5037534;28;20135;-91
2022/06/07 14:04:59;;;;;;;11.13;1.77;;;16.90;99.90;;;;;;5034344;28;20502;-91
2022/06/07 14:07:45;;;;;;;8.70;1.15;;;16.70;99.90;;;;;;5041120;28;20053;-91
2022/06/07 14:10:27;;;;;;;9.55;1.60;;;16.90;99.90;;;;;;4953763;28;20403;-90
2022/06/07 14:13:15;;;;;;;9.38;1.60;;;16.90;99.90;;;;;;5034653;28;20056;-91
2022/06/07 14:15:58;;;;;;;9.88;1.42;;;17.20;99.90;;;;;;5037857;28;20032;-90